sensor_id;sensor_type;location;lat;lon;timestamp;P1;durP1;ratioP1;P2;durP2;ratioP2
10882;SDS011;5494;51.796;10.952;2023-02-03T00:00:08;0.83;;;0.70;;
10882;SDS011;5494;51.796;10.952;2023-02-03T00:02:39;0.90;;;0.60;;
10882;SDS011;5494;51.796;10.952;2023-02-03T00:05:07;0.70;;;0.50;;
10882;SDS011;5494;51.796;10.952;2023-02-03T00:07:35;0.60;;;0.40;;
10882;SDS011;5494;51.796;10.952;2023-02-03T00:10:06;0.77;;;0.53;;
10882;SDS011;5494;51.796;10.952;2023-02-03T00:12:35;0.37;;;0.37;;
10882;SDS011;5494;51.796;10.952;2023-02-03T00:15:03;0.40;;;0.40;;
10882;SDS011;5494;51.796;10.952;2023-02-03T00:17:32;0.83;;;0.40;;
10882;SDS011;5494;51.796;10.952;2023-02-03T00:20:01;0.50;;;0.40;;
10882;SDS011;5494;51.796;10.952;2023-02-03T00:22:29;0.50;;;0.50;;
10882;SDS011;5494;51.796;10.952;2023-02-03T00:24:57;0.67;;;0.40;;
10882;SDS011;5494;51.796;10.952;2023-02-03T00:27:25;0.37;;;0.30;;
10882;SDS011;5494;51.796;10.952;2023-02-03T00:29:53;0.43;;;0.40;;
10882;SDS011;5494;51.796;10.952;2023-02-03T00:32:21;0.40;;;0.40;;
10882;SDS011;5494;51.796;10.952;2023-02-03T00:34:49;0.57;;;0.30;;
10882;SDS011;5494;51.796;10.952;2023-02-03T00:37:19;0.37;;;0.33;;
10882;SDS011;5494;51.796;10.952;2023-02-03T00:39:48;0.37;;;0.33;;
10882;SDS011;5494;51.796;10.952;2023-02-03T00:42:17;0.30;;;0.30;;
10882;SDS011;5494;51.796;10.952;2023-02-03T00:44:45;0.47;;;0.30;;
10882;SDS011;5494;51.796;10.952;2023-02-03T00:47:13;0.40;;;0.40;;
10882;SDS011;5494;51.796;10.952;2023-02-03T00:49:40;0.40;;;0.40;;
10882;SDS011;5494;51.796;10.952;2023-02-03T00:52:08;0.67;;;0.33;;
10882;SDS011;5494;51.796;10.952;2023-02-03T00:54:38;0.43;;;0.43;;
10882;SDS011;5494;51.796;10.952;2023-02-03T00:57:06;0.53;;;0.43;;
10882;SDS011;5494;51.796;10.952;2023-02-03T00:59:33;1.17;;;0.60;;
10882;SDS011;5494;51.796;10.952;2023-02-03T01:02:01;0.80;;;0.70;;
10882;SDS011;5494;51.796;10.952;2023-02-03T01:04:30;1.17;;;0.90;;
10882;SDS011;5494;51.796;10.952;2023-02-03T01:06:58;1.47;;;1.00;;
10882;SDS011;5494;51.796;10.952;2023-02-03T01:09:26;1.30;;;1.20;;
10882;SDS011;5494;51.796;10.952;2023-02-03T01:11:55;1.80;;;1.10;;
10882;SDS011;5494;51.796;10.952;2023-02-03T01:14:23;1.40;;;1.07;;
10882;SDS011;5494;51.796;10.952;2023-02-03T01:16:51;1.63;;;1.10;;
10882;SDS011;5494;51.796;10.952;2023-02-03T01:19:19;1.10;;;1.00;;
10882;SDS011;5494;51.796;10.952;2023-02-03T01:21:48;1.67;;;1.23;;
10882;SDS011;5494;51.796;10.952;2023-02-03T01:24:16;2.60;;;2.10;;
10882;SDS011;5494;51.796;10.952;2023-02-03T01:26:44;3.47;;;2.10;;
10882;SDS011;5494;51.796;10.952;2023-02-03T01:29:14;3.70;;;1.50;;
10882;SDS011;5494;51.796;10.952;2023-02-03T01:31:42;1.87;;;1.57;;
10882;SDS011;5494;51.796;10.952;2023-02-03T01:34:11;2.50;;;1.83;;
10882;SDS011;5494;51.796;10.952;2023-02-03T01:36:42;3.33;;;1.70;;
10882;SDS011;5494;51.796;10.952;2023-02-03T01:39:12;2.10;;;1.70;;
10882;SDS011;5494;51.796;10.952;2023-02-03T01:41:43;2.20;;;2.00;;
10882;SDS011;5494;51.796;10.952;2023-02-03T01:47:10;3.63;;;2.83;;
10882;SDS011;5494;51.796;10.952;2023-02-03T01:49:46;6.53;;;3.57;;
10882;SDS011;5494;51.796;10.952;2023-02-03T01:52:22;5.20;;;3.23;;
10882;SDS011;5494;51.796;10.952;2023-02-03T01:54:51;6.83;;;4.57;;
10882;SDS011;5494;51.796;10.952;2023-02-03T01:57:26;5.33;;;4.30;;
10882;SDS011;5494;51.796;10.952;2023-02-03T02:00:02;6.53;;;5.17;;
10882;SDS011;5494;51.796;10.952;2023-02-03T02:02:39;6.67;;;4.93;;
10882;SDS011;5494;51.796;10.952;2023-02-03T02:05:11;7.13;;;4.83;;
10882;SDS011;5494;51.796;10.952;2023-02-03T02:07:47;8.17;;;5.13;;
10882;SDS011;5494;51.796;10.952;2023-02-03T02:10:18;6.10;;;4.63;;
10882;SDS011;5494;51.796;10.952;2023-02-03T02:12:46;7.37;;;5.43;;
10882;SDS011;5494;51.796;10.952;2023-02-03T02:15:16;6.00;;;4.70;;
10882;SDS011;5494;51.796;10.952;2023-02-03T02:17:53;5.37;;;4.20;;
10882;SDS011;5494;51.796;10.952;2023-02-03T02:24:02;5.93;;;4.83;;
10882;SDS011;5494;51.796;10.952;2023-02-03T02:27:09;6.83;;;4.90;;
10882;SDS011;5494;51.796;10.952;2023-02-03T02:30:06;5.93;;;4.80;;
10882;SDS011;5494;51.796;10.952;2023-02-03T02:33:13;6.27;;;4.67;;
10882;SDS011;5494;51.796;10.952;2023-02-03T02:35:57;6.07;;;4.30;;
10882;SDS011;5494;51.796;10.952;2023-02-03T02:38:45;5.70;;;4.73;;
10882;SDS011;5494;51.796;10.952;2023-02-03T02:41:23;6.33;;;4.17;;
10882;SDS011;5494;51.796;10.952;2023-02-03T02:43:59;6.00;;;3.73;;
10882;SDS011;5494;51.796;10.952;2023-02-03T02:46:36;5.57;;;4.27;;
10882;SDS011;5494;51.796;10.952;2023-02-03T02:49:11;5.57;;;3.77;;
10882;SDS011;5494;51.796;10.952;2023-02-03T02:51:45;3.57;;;3.20;;
10882;SDS011;5494;51.796;10.952;2023-02-03T02:54:16;5.77;;;3.50;;
10882;SDS011;5494;51.796;10.952;2023-02-03T02:56:50;4.23;;;3.30;;
10882;SDS011;5494;51.796;10.952;2023-02-03T02:59:26;4.63;;;3.67;;
10882;SDS011;5494;51.796;10.952;2023-02-03T03:01:55;5.80;;;3.60;;
10882;SDS011;5494;51.796;10.952;2023-02-03T03:04:25;4.77;;;3.50;;
10882;SDS011;5494;51.796;10.952;2023-02-03T03:06:59;4.97;;;3.57;;
10882;SDS011;5494;51.796;10.952;2023-02-03T03:09:32;4.67;;;3.40;;
10882;SDS011;5494;51.796;10.952;2023-02-03T03:12:07;4.07;;;3.33;;
10882;SDS011;5494;51.796;10.952;2023-02-03T03:14:42;2.97;;;2.63;;
10882;SDS011;5494;51.796;10.952;2023-02-03T03:17:18;4.73;;;2.93;;
10882;SDS011;5494;51.796;10.952;2023-02-03T03:19:54;4.10;;;2.80;;
10882;SDS011;5494;51.796;10.952;2023-02-03T03:22:29;3.93;;;2.70;;
10882;SDS011;5494;51.796;10.952;2023-02-03T03:25:04;3.93;;;3.50;;
10882;SDS011;5494;51.796;10.952;2023-02-03T03:27:41;6.53;;;3.63;;
10882;SDS011;5494;51.796;10.952;2023-02-03T03:30:17;6.10;;;3.37;;
10882;SDS011;5494;51.796;10.952;2023-02-03T03:32:51;4.13;;;3.47;;
10882;SDS011;5494;51.796;10.952;2023-02-03T03:35:21;4.07;;;3.57;;
10882;SDS011;5494;51.796;10.952;2023-02-03T03:37:55;4.63;;;3.80;;
10882;SDS011;5494;51.796;10.952;2023-02-03T03:40:30;5.33;;;4.00;;
10882;SDS011;5494;51.796;10.952;2023-02-03T03:43:07;3.60;;;3.23;;
10882;SDS011;5494;51.796;10.952;2023-02-03T03:45:43;4.60;;;3.57;;
10882;SDS011;5494;51.796;10.952;2023-02-03T03:48:20;3.73;;;2.97;;
10882;SDS011;5494;51.796;10.952;2023-02-03T03:50:55;4.80;;;3.57;;
10882;SDS011;5494;51.796;10.952;2023-02-03T03:53:29;4.00;;;3.10;;
10882;SDS011;5494;51.796;10.952;2023-02-03T03:56:03;4.60;;;3.00;;
10882;SDS011;5494;51.796;10.952;2023-02-03T03:58:36;3.93;;;2.70;;
10882;SDS011;5494;51.796;10.952;2023-02-03T04:01:12;3.77;;;3.10;;
10882;SDS011;5494;51.796;10.952;2023-02-03T04:03:43;3.00;;;2.33;;
10882;SDS011;5494;51.796;10.952;2023-02-03T04:06:16;3.70;;;2.93;;
10882;SDS011;5494;51.796;10.952;2023-02-03T04:08:45;5.47;;;3.50;;
10882;SDS011;5494;51.796;10.952;2023-02-03T04:11:13;4.30;;;3.60;;
10882;SDS011;5494;51.796;10.952;2023-02-03T04:14:01;4.40;;;3.73;;
10882;SDS011;5494;51.796;10.952;2023-02-03T04:16:29;6.67;;;5.10;;
10882;SDS011;5494;51.796;10.952;2023-02-03T04:18:58;6.90;;;5.00;;
10882;SDS011;5494;51.796;10.952;2023-02-03T04:21:27;8.57;;;6.17;;
10882;SDS011;5494;51.796;10.952;2023-02-03T04:23:55;7.23;;;5.73;;
10882;SDS011;5494;51.796;10.952;2023-02-03T04:26:23;8.67;;;5.80;;
10882;SDS011;5494;51.796;10.952;2023-02-03T04:28:54;5.37;;;4.63;;
10882;SDS011;5494;51.796;10.952;2023-02-03T04:31:22;6.40;;;5.10;;
10882;SDS011;5494;51.796;10.952;2023-02-03T04:33:50;7.20;;;5.13;;
10882;SDS011;5494;51.796;10.952;2023-02-03T04:36:18;6.57;;;4.47;;
10882;SDS011;5494;51.796;10.952;2023-02-03T04:38:48;7.00;;;4.60;;
10882;SDS011;5494;51.796;10.952;2023-02-03T04:41:16;7.83;;;5.30;;
10882;SDS011;5494;51.796;10.952;2023-02-03T04:43:44;5.63;;;4.97;;
10882;SDS011;5494;51.796;10.952;2023-02-03T04:46:12;7.63;;;5.00;;
10882;SDS011;5494;51.796;10.952;2023-02-03T04:48:40;7.30;;;4.80;;
10882;SDS011;5494;51.796;10.952;2023-02-03T04:51:08;8.50;;;5.03;;
10882;SDS011;5494;51.796;10.952;2023-02-03T04:53:36;7.70;;;4.70;;
10882;SDS011;5494;51.796;10.952;2023-02-03T04:56:06;6.40;;;5.23;;
10882;SDS011;5494;51.796;10.952;2023-02-03T04:58:35;5.80;;;4.60;;
10882;SDS011;5494;51.796;10.952;2023-02-03T05:01:06;6.70;;;5.33;;
10882;SDS011;5494;51.796;10.952;2023-02-03T05:03:35;8.23;;;5.87;;
10882;SDS011;5494;51.796;10.952;2023-02-03T05:06:03;7.43;;;4.93;;
10882;SDS011;5494;51.796;10.952;2023-02-03T05:08:32;5.70;;;5.10;;
10882;SDS011;5494;51.796;10.952;2023-02-03T05:11:00;4.57;;;3.63;;
10882;SDS011;5494;51.796;10.952;2023-02-03T05:13:30;4.17;;;3.77;;
10882;SDS011;5494;51.796;10.952;2023-02-03T05:15:58;4.43;;;3.33;;
10882;SDS011;5494;51.796;10.952;2023-02-03T05:18:26;5.23;;;3.57;;
10882;SDS011;5494;51.796;10.952;2023-02-03T05:20:55;3.90;;;2.77;;
10882;SDS011;5494;51.796;10.952;2023-02-03T05:23:23;4.40;;;2.87;;
10882;SDS011;5494;51.796;10.952;2023-02-03T05:25:50;4.67;;;3.00;;
10882;SDS011;5494;51.796;10.952;2023-02-03T05:28:18;3.30;;;3.00;;
10882;SDS011;5494;51.796;10.952;2023-02-03T05:30:48;4.77;;;2.80;;
10882;SDS011;5494;51.796;10.952;2023-02-03T05:33:16;4.77;;;3.50;;
10882;SDS011;5494;51.796;10.952;2023-02-03T05:35:44;4.00;;;3.43;;
10882;SDS011;5494;51.796;10.952;2023-02-03T05:38:14;7.27;;;3.53;;
10882;SDS011;5494;51.796;10.952;2023-02-03T05:40:42;4.77;;;3.60;;
10882;SDS011;5494;51.796;10.952;2023-02-03T05:43:28;6.50;;;4.10;;
10882;SDS011;5494;51.796;10.952;2023-02-03T05:45:59;7.77;;;4.70;;
10882;SDS011;5494;51.796;10.952;2023-02-03T05:48:28;4.23;;;3.80;;
10882;SDS011;5494;51.796;10.952;2023-02-03T05:50:56;5.73;;;5.00;;
10882;SDS011;5494;51.796;10.952;2023-02-03T05:53:24;6.37;;;4.90;;
10882;SDS011;5494;51.796;10.952;2023-02-03T05:55:52;6.20;;;5.07;;
10882;SDS011;5494;51.796;10.952;2023-02-03T05:58:20;7.30;;;5.47;;
10882;SDS011;5494;51.796;10.952;2023-02-03T06:00:48;5.70;;;5.10;;
10882;SDS011;5494;51.796;10.952;2023-02-03T06:03:19;7.83;;;5.53;;
10882;SDS011;5494;51.796;10.952;2023-02-03T06:05:47;5.97;;;5.37;;
10882;SDS011;5494;51.796;10.952;2023-02-03T06:08:15;6.67;;;5.33;;
10882;SDS011;5494;51.796;10.952;2023-02-03T06:10:43;7.77;;;5.50;;
10882;SDS011;5494;51.796;10.952;2023-02-03T06:13:12;6.13;;;5.10;;
10882;SDS011;5494;51.796;10.952;2023-02-03T06:15:42;8.63;;;5.67;;
10882;SDS011;5494;51.796;10.952;2023-02-03T06:18:10;8.07;;;5.50;;
10882;SDS011;5494;51.796;10.952;2023-02-03T06:20:40;7.87;;;5.00;;
10882;SDS011;5494;51.796;10.952;2023-02-03T06:23:07;8.50;;;5.17;;
10882;SDS011;5494;51.796;10.952;2023-02-03T06:25:35;8.17;;;5.17;;
10882;SDS011;5494;51.796;10.952;2023-02-03T06:28:04;7.50;;;5.50;;
10882;SDS011;5494;51.796;10.952;2023-02-03T06:30:32;6.40;;;5.30;;
10882;SDS011;5494;51.796;10.952;2023-02-03T06:33:00;5.10;;;4.33;;
10882;SDS011;5494;51.796;10.952;2023-02-03T06:35:28;7.10;;;4.70;;
10882;SDS011;5494;51.796;10.952;2023-02-03T06:37:57;9.17;;;4.23;;
10882;SDS011;5494;51.796;10.952;2023-02-03T06:40:25;6.33;;;4.80;;
10882;SDS011;5494;51.796;10.952;2023-02-03T06:42:54;8.17;;;5.43;;
10882;SDS011;5494;51.796;10.952;2023-02-03T06:45:22;7.83;;;5.23;;
10882;SDS011;5494;51.796;10.952;2023-02-03T06:47:51;6.30;;;5.03;;
10882;SDS011;5494;51.796;10.952;2023-02-03T06:50:19;6.67;;;4.67;;
10882;SDS011;5494;51.796;10.952;2023-02-03T06:52:47;7.97;;;4.67;;
10882;SDS011;5494;51.796;10.952;2023-02-03T06:55:17;7.23;;;5.10;;
10882;SDS011;5494;51.796;10.952;2023-02-03T06:57:46;6.37;;;4.77;;
10882;SDS011;5494;51.796;10.952;2023-02-03T07:00:16;5.70;;;4.60;;
10882;SDS011;5494;51.796;10.952;2023-02-03T07:02:51;4.60;;;3.90;;
10882;SDS011;5494;51.796;10.952;2023-02-03T07:05:20;5.53;;;3.60;;
10882;SDS011;5494;51.796;10.952;2023-02-03T07:07:50;5.43;;;3.70;;
10882;SDS011;5494;51.796;10.952;2023-02-03T07:10:20;4.13;;;3.10;;
10882;SDS011;5494;51.796;10.952;2023-02-03T07:12:48;3.30;;;2.47;;
10882;SDS011;5494;51.796;10.952;2023-02-03T07:15:17;3.50;;;2.40;;
10882;SDS011;5494;51.796;10.952;2023-02-03T07:17:45;2.43;;;1.97;;
10882;SDS011;5494;51.796;10.952;2023-02-03T07:20:20;2.53;;;2.17;;
10882;SDS011;5494;51.796;10.952;2023-02-03T07:22:50;2.97;;;2.30;;
10882;SDS011;5494;51.796;10.952;2023-02-03T07:25:21;3.53;;;2.33;;
10882;SDS011;5494;51.796;10.952;2023-02-03T07:27:50;3.00;;;2.47;;
10882;SDS011;5494;51.796;10.952;2023-02-03T07:30:19;3.00;;;2.27;;
10882;SDS011;5494;51.796;10.952;2023-02-03T07:32:47;4.00;;;2.53;;
10882;SDS011;5494;51.796;10.952;2023-02-03T07:35:17;4.43;;;2.57;;
10882;SDS011;5494;51.796;10.952;2023-02-03T07:37:45;3.40;;;2.60;;
10882;SDS011;5494;51.796;10.952;2023-02-03T07:40:13;1.90;;;1.70;;
10882;SDS011;5494;51.796;10.952;2023-02-03T07:42:44;2.43;;;1.90;;
10882;SDS011;5494;51.796;10.952;2023-02-03T07:45:17;2.70;;;1.90;;
10882;SDS011;5494;51.796;10.952;2023-02-03T07:47:47;1.87;;;1.50;;
10882;SDS011;5494;51.796;10.952;2023-02-03T07:50:15;1.83;;;1.43;;
10882;SDS011;5494;51.796;10.952;2023-02-03T07:52:44;1.33;;;1.17;;
10882;SDS011;5494;51.796;10.952;2023-02-03T07:55:12;3.80;;;1.60;;
10882;SDS011;5494;51.796;10.952;2023-02-03T07:57:39;1.10;;;1.00;;
10882;SDS011;5494;51.796;10.952;2023-02-03T08:00:11;3.10;;;1.30;;
10882;SDS011;5494;51.796;10.952;2023-02-03T08:02:42;1.30;;;1.20;;
10882;SDS011;5494;51.796;10.952;2023-02-03T08:05:10;1.40;;;1.10;;
10882;SDS011;5494;51.796;10.952;2023-02-03T08:07:39;1.10;;;1.00;;
10882;SDS011;5494;51.796;10.952;2023-02-03T08:10:09;4.00;;;1.03;;
10882;SDS011;5494;51.796;10.952;2023-02-03T08:12:40;1.03;;;0.90;;
10882;SDS011;5494;51.796;10.952;2023-02-03T08:15:12;0.90;;;0.80;;
10882;SDS011;5494;51.796;10.952;2023-02-03T08:17:42;1.10;;;1.00;;
10882;SDS011;5494;51.796;10.952;2023-02-03T08:20:10;1.03;;;0.93;;
10882;SDS011;5494;51.796;10.952;2023-02-03T08:22:39;1.00;;;0.80;;
10882;SDS011;5494;51.796;10.952;2023-02-03T08:25:07;1.97;;;1.20;;
10882;SDS011;5494;51.796;10.952;2023-02-03T08:27:36;1.23;;;0.77;;
10882;SDS011;5494;51.796;10.952;2023-02-03T08:30:05;0.80;;;0.80;;
10882;SDS011;5494;51.796;10.952;2023-02-03T08:32:37;1.87;;;1.17;;
10882;SDS011;5494;51.796;10.952;2023-02-03T08:35:06;43.33;;;24.53;;
10882;SDS011;5494;51.796;10.952;2023-02-03T08:37:34;24.17;;;13.43;;
10882;SDS011;5494;51.796;10.952;2023-02-03T08:40:03;8.07;;;5.40;;
10882;SDS011;5494;51.796;10.952;2023-02-03T08:42:35;2.93;;;0.80;;
10882;SDS011;5494;51.796;10.952;2023-02-03T08:45:04;0.83;;;0.80;;
10882;SDS011;5494;51.796;10.952;2023-02-03T08:47:33;0.80;;;0.80;;
10882;SDS011;5494;51.796;10.952;2023-02-03T08:50:04;0.90;;;0.83;;
10882;SDS011;5494;51.796;10.952;2023-02-03T08:52:35;0.80;;;0.80;;
10882;SDS011;5494;51.796;10.952;2023-02-03T08:55:03;1.23;;;1.00;;
10882;SDS011;5494;51.796;10.952;2023-02-03T08:57:32;0.70;;;0.70;;
10882;SDS011;5494;51.796;10.952;2023-02-03T09:00:02;0.67;;;0.67;;
10882;SDS011;5494;51.796;10.952;2023-02-03T09:02:32;0.80;;;0.60;;
10882;SDS011;5494;51.796;10.952;2023-02-03T09:05:00;0.50;;;0.50;;
10882;SDS011;5494;51.796;10.952;2023-02-03T09:07:30;0.47;;;0.40;;
10882;SDS011;5494;51.796;10.952;2023-02-03T09:09:58;0.50;;;0.50;;
10882;SDS011;5494;51.796;10.952;2023-02-03T09:12:26;1.43;;;0.40;;
10882;SDS011;5494;51.796;10.952;2023-02-03T09:14:54;0.50;;;0.50;;
10882;SDS011;5494;51.796;10.952;2023-02-03T09:17:21;0.50;;;0.50;;
10882;SDS011;5494;51.796;10.952;2023-02-03T09:19:50;0.50;;;0.50;;
10882;SDS011;5494;51.796;10.952;2023-02-03T09:22:18;0.40;;;0.40;;
10882;SDS011;5494;51.796;10.952;2023-02-03T09:24:47;1.27;;;0.50;;
10882;SDS011;5494;51.796;10.952;2023-02-03T09:27:16;1.13;;;0.47;;
10882;SDS011;5494;51.796;10.952;2023-02-03T09:29:44;7.00;;;5.17;;
10882;SDS011;5494;51.796;10.952;2023-02-03T09:32:12;3.20;;;3.00;;
10882;SDS011;5494;51.796;10.952;2023-02-03T09:34:41;1.97;;;1.87;;
10882;SDS011;5494;51.796;10.952;2023-02-03T09:37:09;2.83;;;2.63;;
10882;SDS011;5494;51.796;10.952;2023-02-03T09:39:37;1.10;;;1.00;;
10882;SDS011;5494;51.796;10.952;2023-02-03T09:42:13;1.70;;;1.60;;
10882;SDS011;5494;51.796;10.952;2023-02-03T09:45:22;1.20;;;1.10;;
10882;SDS011;5494;51.796;10.952;2023-02-03T09:47:54;2.07;;;0.97;;
10882;SDS011;5494;51.796;10.952;2023-02-03T09:50:31;1.00;;;0.73;;
10882;SDS011;5494;51.796;10.952;2023-02-03T09:53:04;0.80;;;0.70;;
10882;SDS011;5494;51.796;10.952;2023-02-03T09:55:47;1.10;;;0.80;;
10882;SDS011;5494;51.796;10.952;2023-02-03T09:58:17;0.53;;;0.43;;
10882;SDS011;5494;51.796;10.952;2023-02-03T10:00:49;0.90;;;0.33;;
10882;SDS011;5494;51.796;10.952;2023-02-03T10:03:22;0.77;;;0.50;;
10882;SDS011;5494;51.796;10.952;2023-02-03T10:15:02;0.40;;;0.40;;
10882;SDS011;5494;51.796;10.952;2023-02-03T10:17:50;0.30;;;0.30;;
10882;SDS011;5494;51.796;10.952;2023-02-03T10:20:28;0.43;;;0.43;;
10882;SDS011;5494;51.796;10.952;2023-02-03T10:23:06;0.97;;;0.47;;
10882;SDS011;5494;51.796;10.952;2023-02-03T10:25:40;0.50;;;0.50;;
10882;SDS011;5494;51.796;10.952;2023-02-03T10:28:15;0.63;;;0.53;;
10882;SDS011;5494;51.796;10.952;2023-02-03T10:30:48;1.20;;;0.70;;
10882;SDS011;5494;51.796;10.952;2023-02-03T10:33:23;1.03;;;0.40;;
10882;SDS011;5494;51.796;10.952;2023-02-03T10:35:54;1.87;;;0.80;;
10882;SDS011;5494;51.796;10.952;2023-02-03T10:38:36;1.57;;;0.70;;
10882;SDS011;5494;51.796;10.952;2023-02-03T10:41:18;1.80;;;0.80;;
10882;SDS011;5494;51.796;10.952;2023-02-03T10:43:49;2.50;;;0.80;;
10882;SDS011;5494;51.796;10.952;2023-02-03T10:46:26;1.90;;;0.70;;
10882;SDS011;5494;51.796;10.952;2023-02-03T10:48:58;1.17;;;0.63;;
10882;SDS011;5494;51.796;10.952;2023-02-03T10:51:28;2.50;;;0.80;;
10882;SDS011;5494;51.796;10.952;2023-02-03T10:54:03;38.50;;;20.73;;
10882;SDS011;5494;51.796;10.952;2023-02-03T10:56:33;45.33;;;21.27;;
10882;SDS011;5494;51.796;10.952;2023-02-03T10:59:05;43.40;;;15.60;;
10882;SDS011;5494;51.796;10.952;2023-02-03T11:01:40;96.17;;;36.03;;
10882;SDS011;5494;51.796;10.952;2023-02-03T11:04:22;54.67;;;19.53;;
10882;SDS011;5494;51.796;10.952;2023-02-03T11:06:54;64.73;;;30.07;;
10882;SDS011;5494;51.796;10.952;2023-02-03T11:09:27;38.47;;;17.10;;
10882;SDS011;5494;51.796;10.952;2023-02-03T11:12:01;75.07;;;33.53;;
10882;SDS011;5494;51.796;10.952;2023-02-03T11:14:38;64.77;;;32.87;;
10882;SDS011;5494;51.796;10.952;2023-02-03T11:17:15;16.23;;;12.70;;
10882;SDS011;5494;51.796;10.952;2023-02-03T11:19:48;5.40;;;4.90;;
10882;SDS011;5494;51.796;10.952;2023-02-03T11:22:26;2.03;;;1.10;;
10882;SDS011;5494;51.796;10.952;2023-02-03T11:24:57;2.77;;;2.03;;
10882;SDS011;5494;51.796;10.952;2023-02-03T11:27:29;2.47;;;2.27;;
10882;SDS011;5494;51.796;10.952;2023-02-03T11:30:08;1.57;;;1.40;;
10882;SDS011;5494;51.796;10.952;2023-02-03T11:32:43;1.83;;;0.90;;
10882;SDS011;5494;51.796;10.952;2023-02-03T11:35:15;3.30;;;1.53;;
10882;SDS011;5494;51.796;10.952;2023-02-03T11:37:50;2.13;;;1.60;;
10882;SDS011;5494;51.796;10.952;2023-02-03T11:40:24;1.50;;;1.10;;
10882;SDS011;5494;51.796;10.952;2023-02-03T11:42:59;1.13;;;0.80;;
10882;SDS011;5494;51.796;10.952;2023-02-03T11:45:34;4.77;;;1.03;;
10882;SDS011;5494;51.796;10.952;2023-02-03T11:48:15;4.03;;;1.23;;
10882;SDS011;5494;51.796;10.952;2023-02-03T11:50:55;5.13;;;1.70;;
10882;SDS011;5494;51.796;10.952;2023-02-03T11:53:34;2.00;;;1.30;;
10882;SDS011;5494;51.796;10.952;2023-02-03T11:56:29;3.57;;;1.40;;
10882;SDS011;5494;51.796;10.952;2023-02-03T11:59:44;7.33;;;1.57;;
10882;SDS011;5494;51.796;10.952;2023-02-03T12:05:54;5.37;;;1.70;;
10882;SDS011;5494;51.796;10.952;2023-02-03T12:08:50;3.67;;;1.50;;
10882;SDS011;5494;51.796;10.952;2023-02-03T12:11:38;6.13;;;1.27;;
10882;SDS011;5494;51.796;10.952;2023-02-03T12:14:35;4.13;;;1.30;;
10882;SDS011;5494;51.796;10.952;2023-02-03T12:17:25;3.10;;;1.43;;
10882;SDS011;5494;51.796;10.952;2023-02-03T12:23:22;6.43;;;1.63;;
10882;SDS011;5494;51.796;10.952;2023-02-03T12:26:07;6.73;;;1.57;;
10882;SDS011;5494;51.796;10.952;2023-02-03T12:28:48;4.60;;;1.63;;
10882;SDS011;5494;51.796;10.952;2023-02-03T12:31:26;5.20;;;1.30;;
10882;SDS011;5494;51.796;10.952;2023-02-03T12:34:05;2.83;;;1.47;;
10882;SDS011;5494;51.796;10.952;2023-02-03T12:36:46;5.10;;;1.17;;
10882;SDS011;5494;51.796;10.952;2023-02-03T12:39:20;5.87;;;1.33;;
10882;SDS011;5494;51.796;10.952;2023-02-03T12:41:59;6.93;;;2.27;;
10882;SDS011;5494;51.796;10.952;2023-02-03T12:44:38;5.67;;;1.60;;
10882;SDS011;5494;51.796;10.952;2023-02-03T12:47:16;5.47;;;1.33;;
10882;SDS011;5494;51.796;10.952;2023-02-03T12:49:55;7.43;;;2.00;;
10882;SDS011;5494;51.796;10.952;2023-02-03T12:52:29;8.80;;;1.63;;
10882;SDS011;5494;51.796;10.952;2023-02-03T12:55:07;6.80;;;1.97;;
10882;SDS011;5494;51.796;10.952;2023-02-03T12:57:48;8.43;;;1.83;;
10882;SDS011;5494;51.796;10.952;2023-02-03T13:00:29;8.27;;;2.83;;
10882;SDS011;5494;51.796;10.952;2023-02-03T13:03:14;3.97;;;1.80;;
10882;SDS011;5494;51.796;10.952;2023-02-03T13:05:51;8.00;;;1.97;;
10882;SDS011;5494;51.796;10.952;2023-02-03T13:08:36;6.87;;;2.20;;
10882;SDS011;5494;51.796;10.952;2023-02-03T13:11:15;7.13;;;3.40;;
10882;SDS011;5494;51.796;10.952;2023-02-03T13:13:53;6.83;;;2.23;;
10882;SDS011;5494;51.796;10.952;2023-02-03T13:16:31;7.83;;;1.90;;
10882;SDS011;5494;51.796;10.952;2023-02-03T13:19:07;5.60;;;2.17;;
10882;SDS011;5494;51.796;10.952;2023-02-03T13:21:47;12.27;;;3.63;;
10882;SDS011;5494;51.796;10.952;2023-02-03T13:24:20;7.80;;;2.27;;
10882;SDS011;5494;51.796;10.952;2023-02-03T13:27:01;9.03;;;2.17;;
10882;SDS011;5494;51.796;10.952;2023-02-03T13:29:49;8.70;;;2.20;;
10882;SDS011;5494;51.796;10.952;2023-02-03T13:32:39;11.37;;;2.37;;
10882;SDS011;5494;51.796;10.952;2023-02-03T13:35:43;13.97;;;2.33;;
10882;SDS011;5494;51.796;10.952;2023-02-03T13:38:30;7.40;;;1.93;;
10882;SDS011;5494;51.796;10.952;2023-02-03T13:41:45;9.97;;;2.77;;
10882;SDS011;5494;51.796;10.952;2023-02-03T13:44:18;8.30;;;2.77;;
10882;SDS011;5494;51.796;10.952;2023-02-03T13:46:53;9.00;;;2.37;;
10882;SDS011;5494;51.796;10.952;2023-02-03T13:49:28;9.07;;;2.43;;
10882;SDS011;5494;51.796;10.952;2023-02-03T13:52:01;10.30;;;2.43;;
10882;SDS011;5494;51.796;10.952;2023-02-03T13:54:31;8.97;;;1.97;;
10882;SDS011;5494;51.796;10.952;2023-02-03T13:57:05;8.87;;;2.30;;
10882;SDS011;5494;51.796;10.952;2023-02-03T13:59:48;7.87;;;2.37;;
10882;SDS011;5494;51.796;10.952;2023-02-03T14:05:39;6.93;;;2.00;;
10882;SDS011;5494;51.796;10.952;2023-02-03T14:11:37;9.77;;;3.07;;
10882;SDS011;5494;51.796;10.952;2023-02-03T14:23:55;7.37;;;2.00;;
10882;SDS011;5494;51.796;10.952;2023-02-03T14:26:38;10.47;;;3.20;;
10882;SDS011;5494;51.796;10.952;2023-02-03T14:29:10;11.17;;;2.53;;
10882;SDS011;5494;51.796;10.952;2023-02-03T14:31:57;12.03;;;2.47;;
10882;SDS011;5494;51.796;10.952;2023-02-03T14:34:29;8.90;;;2.20;;
10882;SDS011;5494;51.796;10.952;2023-02-03T14:37:10;8.90;;;2.60;;
10882;SDS011;5494;51.796;10.952;2023-02-03T14:43:07;11.37;;;2.63;;
10882;SDS011;5494;51.796;10.952;2023-02-03T14:49:00;9.60;;;2.30;;
10882;SDS011;5494;51.796;10.952;2023-02-03T14:51:59;7.03;;;3.33;;
10882;SDS011;5494;51.796;10.952;2023-02-03T14:54:49;23.43;;;9.17;;
10882;SDS011;5494;51.796;10.952;2023-02-03T14:57:41;32.47;;;15.03;;
10882;SDS011;5494;51.796;10.952;2023-02-03T15:00:27;24.70;;;11.33;;
10882;SDS011;5494;51.796;10.952;2023-02-03T15:03:16;29.63;;;11.17;;
10882;SDS011;5494;51.796;10.952;2023-02-03T15:05:58;15.77;;;6.87;;
10882;SDS011;5494;51.796;10.952;2023-02-03T15:08:38;13.90;;;3.73;;
10882;SDS011;5494;51.796;10.952;2023-02-03T15:11:28;10.77;;;2.87;;
10882;SDS011;5494;51.796;10.952;2023-02-03T15:14:19;8.13;;;3.03;;
10882;SDS011;5494;51.796;10.952;2023-02-03T15:16:55;13.57;;;2.40;;
10882;SDS011;5494;51.796;10.952;2023-02-03T15:19:31;8.57;;;2.40;;
10882;SDS011;5494;51.796;10.952;2023-02-03T15:22:17;10.60;;;2.33;;
10882;SDS011;5494;51.796;10.952;2023-02-03T15:24:47;7.83;;;2.40;;
10882;SDS011;5494;51.796;10.952;2023-02-03T15:27:19;8.80;;;2.47;;
10882;SDS011;5494;51.796;10.952;2023-02-03T15:29:49;8.53;;;2.00;;
10882;SDS011;5494;51.796;10.952;2023-02-03T15:32:19;10.90;;;2.97;;
10882;SDS011;5494;51.796;10.952;2023-02-03T15:34:54;7.33;;;2.10;;
10882;SDS011;5494;51.796;10.952;2023-02-03T15:37:27;6.67;;;1.77;;
10882;SDS011;5494;51.796;10.952;2023-02-03T15:40:07;7.33;;;2.27;;
10882;SDS011;5494;51.796;10.952;2023-02-03T15:42:45;10.37;;;2.20;;
10882;SDS011;5494;51.796;10.952;2023-02-03T15:45:25;7.30;;;2.10;;
10882;SDS011;5494;51.796;10.952;2023-02-03T15:48:01;9.90;;;2.10;;
10882;SDS011;5494;51.796;10.952;2023-02-03T15:50:40;8.77;;;1.53;;
10882;SDS011;5494;51.796;10.952;2023-02-03T15:53:15;5.83;;;2.03;;
10882;SDS011;5494;51.796;10.952;2023-02-03T15:55:53;7.47;;;1.70;;
10882;SDS011;5494;51.796;10.952;2023-02-03T15:58:26;7.07;;;1.80;;
10882;SDS011;5494;51.796;10.952;2023-02-03T16:00:57;8.70;;;2.10;;
10882;SDS011;5494;51.796;10.952;2023-02-03T16:03:33;5.07;;;1.80;;
10882;SDS011;5494;51.796;10.952;2023-02-03T16:06:07;10.50;;;2.30;;
10882;SDS011;5494;51.796;10.952;2023-02-03T16:08:43;6.83;;;1.80;;